Time;durP1;ratioP1;P1;durP2;ratioP2;P2;SDS_P1;SDS_P2;PMS_P1;PMS_P2;Temp;Humidity;BMP_temperature;BMP_pressure;BME280_temperature;BME280_humidity;BME280_pressure;Samples;Min_cycle;Max_cycle;Signal;HPM_P1;HPM_P2
2022/04/18 00:00:04;;;;;;;5.80;3.70;;;;;;;;;;5036171;28;20484;-72
2022/04/18 00:02:30;;;;;;;6.93;3.40;;;;;;;;;;5036319;28;20407;-68
2022/04/18 00:04:56;;;;;;;4.13;3.40;;;;;;;;;;5036068;28;20466;-72
2022/04/18 00:07:22;;;;;;;4.33;3.53;;;;;;;;;;5036301;28;20430;-72
2022/04/18 00:09:48;;;;;;;3.80;3.50;;;;;;;;;;5036153;28;20442;-70
2022/04/18 00:12:14;;;;;;;4.80;3.60;;;;;;;;;;5036138;28;20457;-70
2022/04/18 00:14:40;;;;;;;5.30;3.70;;;;;;;;;;5035225;28;20443;-67
2022/04/18 00:17:09;;;;;;;5.27;3.50;;;;;;;;;;5035985;28;20422;-70
2022/04/18 00:19:36;;;;;;;4.83;3.47;;;;;;;;;;5035822;28;20519;-68
2022/04/18 00:22:02;;;;;;;6.50;3.10;;;;;;;;;;5035972;28;20448;-72
2022/04/18 00:24:28;;;;;;;5.27;3.63;;;;;;;;;;5036112;28;20473;-69
2022/04/18 00:26:54;;;;;;;3.93;3.53;;;;;;;;;;5035869;28;20415;-73
2022/04/18 00:29:20;;;;;;;3.70;3.40;;;;;;;;;;5035732;28;20426;-72
2022/04/18 00:31:46;;;;;;;4.03;2.87;;;;;;;;;;5035776;28;20403;-71
2022/04/18 00:34:14;;;;;;;3.63;3.33;;;;;;;;;;5035718;28;20422;-72
2022/04/18 00:36:40;;;;;;;4.80;3.10;;;;;;;;;;5035665;28;20442;-71
2022/04/18 00:39:06;;;;;;;4.17;3.50;;;;;;;;;;5035456;28;20524;-72
2022/04/18 00:41:32;;;;;;;7.10;3.00;;;;;;;;;;5034194;28;20868;-71
2022/04/18 00:43:58;;;;;;;3.60;3.30;;;;;;;;;;5035576;28;20472;-72
2022/04/18 00:46:24;;;;;;;5.77;3.33;;;;;;;;;;5035361;28;20443;-69
2022/04/18 00:48:50;;;;;;;6.80;3.50;;;;;;;;;;5035260;28;20478;-73
2022/04/18 00:51:21;;;;;;;4.43;3.00;;;;;;;;;;5035528;28;20420;-71
2022/04/18 00:53:49;;;;;;;3.80;3.50;;;;;;;;;;5035293;28;20422;-73
2022/04/18 00:56:16;;;;;;;5.47;3.50;;;;;;;;;;5035104;28;20414;-71
2022/04/18 00:58:42;;;;;;;3.27;2.97;;;;;;;;;;5035155;28;20474;-71
2022/04/18 01:01:09;;;;;;;3.47;3.17;;;;;;;;;;5035141;28;20422;-73
2022/04/18 01:03:35;;;;;;;4.10;3.70;;;;;;;;;;5035128;28;20512;-71
2022/04/18 01:06:02;;;;;;;5.43;3.60;;;;;;;;;;5034901;28;20442;-73
2022/04/18 01:08:30;;;;;;;4.20;3.03;;;;;;;;;;5035121;28;20437;-73
2022/04/18 01:10:57;;;;;;;3.43;3.13;;;;;;;;;;5034957;28;20417;-73
2022/04/18 01:13:23;;;;;;;4.70;3.30;;;;;;;;;;5035012;28;20417;-71
2022/04/18 01:15:53;;;;;;;5.17;3.33;;;;;;;;;;5034874;28;20505;-72
2022/04/18 01:18:19;;;;;;;4.20;3.37;;;;;;;;;;5034696;28;20464;-72
2022/04/18 01:20:45;;;;;;;5.77;3.73;;;;;;;;;;5034902;28;20410;-72
2022/04/18 01:23:11;;;;;;;3.97;3.50;;;;;;;;;;5034904;28;20461;-73
2022/04/18 01:31:06;;;;;;;3.40;3.07;;;;;;;;;;5034741;28;20422;-72
2022/04/18 01:33:32;;;;;;;4.53;3.70;;;;;;;;;;5034609;28;20410;-68
2022/04/18 01:35:58;;;;;;;4.70;3.57;;;;;;;;;;5034541;28;20473;-70
2022/04/18 01:38:25;;;;;;;3.23;2.93;;;;;;;;;;5034501;28;20458;-73
2022/04/18 01:40:51;;;;;;;3.90;3.27;;;;;;;;;;5034335;28;20469;-63
2022/04/18 01:43:17;;;;;;;3.73;3.43;;;;;;;;;;5034392;28;20914;-68
2022/04/18 01:45:43;;;;;;;4.83;3.80;;;;;;;;;;5034219;28;20417;-67
2022/04/18 01:48:09;;;;;;;4.07;3.47;;;;;;;;;;5034191;28;20441;-73
2022/04/18 01:50:36;;;;;;;5.63;3.90;;;;;;;;;;5034261;28;20489;-73
2022/04/18 01:53:03;;;;;;;6.63;3.73;;;;;;;;;;5034218;28;20918;-70
2022/04/18 01:55:29;;;;;;;9.77;4.10;;;;;;;;;;5034202;28;20487;-71
2022/04/18 01:57:55;;;;;;;4.33;3.40;;;;;;;;;;5034063;28;20438;-65
2022/04/18 02:00:21;;;;;;;9.37;3.50;;;;;;;;;;5033999;28;20415;-72
2022/04/18 02:02:47;;;;;;;5.80;3.50;;;;;;;;;;5034206;28;20403;-72
2022/04/18 02:05:13;;;;;;;4.13;3.70;;;;;;;;;;5033763;28;20976;-72
2022/04/18 02:07:39;;;;;;;4.40;3.67;;;;;;;;;;5033367;28;20517;-71
2022/04/18 02:10:05;;;;;;;4.90;3.80;;;;;;;;;;5033808;28;20410;-66
2022/04/18 02:12:32;;;;;;;4.17;3.77;;;;;;;;;;5033952;28;20425;-70
2022/04/18 02:14:58;;;;;;;4.10;3.70;;;;;;;;;;5033865;28;20415;-69
2022/04/18 02:17:24;;;;;;;3.60;3.30;;;;;;;;;;5033672;28;20414;-64
2022/04/18 02:19:50;;;;;;;3.57;3.10;;;;;;;;;;5033526;28;20556;-64
2022/04/18 02:22:16;;;;;;;3.97;3.60;;;;;;;;;;5033747;28;20398;-64
2022/04/18 02:24:43;;;;;;;4.30;3.63;;;;;;;;;;5033740;28;20414;-72
2022/04/18 02:27:09;;;;;;;6.33;3.93;;;;;;;;;;5033569;28;20402;-71
2022/04/18 02:29:35;;;;;;;4.10;3.70;;;;;;;;;;5033761;28;20415;-65
2022/04/18 02:34:46;;;;;;;7.33;4.23;;;;;;;;;;5033643;28;20928;-68
2022/04/18 02:37:12;;;;;;;4.00;3.60;;;;;;;;;;5033491;28;20446;-72
2022/04/18 02:39:38;;;;;;;3.77;3.40;;;;;;;;;;5033270;28;20466;-71
2022/04/18 02:42:04;;;;;;;4.43;3.47;;;;;;;;;;5033552;28;20485;-72
2022/04/18 02:44:30;;;;;;;4.50;4.10;;;;;;;;;;5033422;28;20425;-72
2022/04/18 02:46:56;;;;;;;4.37;3.70;;;;;;;;;;5033277;28;20829;-72
2022/04/18 02:49:22;;;;;;;4.23;3.50;;;;;;;;;;5033141;28;20466;-70
2022/04/18 02:51:48;;;;;;;3.33;3.03;;;;;;;;;;5033260;28;20403;-72
2022/04/18 02:54:14;;;;;;;4.17;3.40;;;;;;;;;;5033239;28;20425;-72
2022/04/18 02:56:40;;;;;;;3.93;2.90;;;;;;;;;;5032831;28;20399;-71
2022/04/18 02:59:06;;;;;;;4.47;3.67;;;;;;;;;;5033248;28;20987;-70
2022/04/18 03:01:32;;;;;;;3.63;3.33;;;;;;;;;;5033303;28;20406;-67
2022/04/18 03:03:58;;;;;;;3.77;3.47;;;;;;;;;;5033128;28;20437;-70
2022/04/18 03:06:25;;;;;;;3.83;3.53;;;;;;;;;;5031687;28;20565;-71
2022/04/18 03:08:51;;;;;;;9.60;3.23;;;;;;;;;;5033034;28;20426;-69
2022/04/18 03:11:17;;;;;;;4.17;3.77;;;;;;;;;;5033059;28;20877;-73
2022/04/18 03:13:44;;;;;;;6.90;4.10;;;;;;;;;;5031838;28;20456;-70
2022/04/18 03:16:10;;;;;;;3.90;3.50;;;;;;;;;;5031840;28;20403;-68
2022/04/18 03:18:36;;;;;;;4.93;3.37;;;;;;;;;;5035616;28;20466;-72
2022/04/18 03:21:03;;;;;;;3.70;3.17;;;;;;;;;;5037118;28;20481;-74
2022/04/18 03:23:29;;;;;;;5.60;3.30;;;;;;;;;;5037102;28;20410;-70
2022/04/18 03:25:55;;;;;;;4.00;3.60;;;;;;;;;;5036945;28;20885;-72
2022/04/18 03:28:21;;;;;;;3.50;3.20;;;;;;;;;;5036969;28;20428;-69
2022/04/18 03:30:47;;;;;;;6.20;3.60;;;;;;;;;;5036946;28;20782;-71
2022/04/18 03:33:13;;;;;;;4.70;3.20;;;;;;;;;;5036966;28;20412;-74
2022/04/18 03:39:50;;;;;;;4.37;3.80;;;;;;;;;;5036779;28;20414;-72
2022/04/18 03:41:10;;;;;;;3.80;3.50;;;;;;;;;;5036787;28;20437;-72
2022/04/18 03:43:36;;;;;;;4.23;3.50;;;;;;;;;;5036683;28;20890;-71
2022/04/18 03:46:02;;;;;;;4.73;4.17;;;;;;;;;;5036533;28;20406;-73
2022/04/18 03:48:28;;;;;;;6.40;3.90;;;;;;;;;;5036538;28;20435;-70
2022/04/18 03:50:54;;;;;;;7.00;3.70;;;;;;;;;;5036470;28;20924;-71
2022/04/18 03:53:20;;;;;;;6.50;3.60;;;;;;;;;;5036641;28;20411;-73
2022/04/18 03:55:46;;;;;;;4.87;3.67;;;;;;;;;;5035122;28;20534;-72
2022/04/18 03:58:12;;;;;;;3.43;3.10;;;;;;;;;;5036314;28;20497;-72
2022/04/18 04:00:42;;;;;;;4.83;3.87;;;;;;;;;;5036394;28;20418;-70
2022/04/18 04:03:08;;;;;;;4.70;4.00;;;;;;;;;;5036345;28;20409;-71
2022/04/18 04:05:34;;;;;;;4.10;3.70;;;;;;;;;;5036117;28;20961;-71
2022/04/18 04:08:00;;;;;;;4.07;3.67;;;;;;;;;;5036281;28;20414;-73
2022/04/18 04:10:26;;;;;;;4.03;3.73;;;;;;;;;;5036143;28;20498;-69
2022/04/18 04:12:52;;;;;;;5.60;4.30;;;;;;;;;;5036230;28;20411;-71
2022/04/18 04:15:19;;;;;;;5.40;3.97;;;;;;;;;;5035943;28;20418;-71
2022/04/18 04:17:45;;;;;;;4.40;3.97;;;;;;;;;;5035873;28;20484;-70
2022/04/18 04:20:11;;;;;;;4.67;3.53;;;;;;;;;;5035894;28;20522;-68
2022/04/18 04:22:37;;;;;;;4.30;3.50;;;;;;;;;;5036088;28;20522;-69
2022/04/18 04:25:03;;;;;;;4.33;3.80;;;;;;;;;;5035970;28;20873;-71
2022/04/18 04:27:30;;;;;;;5.20;4.00;;;;;;;;;;5035724;28;20418;-71
2022/04/18 04:29:57;;;;;;;4.33;3.70;;;;;;;;;;5035170;28;20517;-71
2022/04/18 04:32:24;;;;;;;4.40;3.93;;;;;;;;;;5035837;28;20422;-70
2022/04/18 04:34:50;;;;;;;5.23;3.70;;;;;;;;;;5035675;28;20456;-69
2022/04/18 04:37:16;;;;;;;4.30;4.00;;;;;;;;;;5035637;28;20406;-71
2022/04/18 04:39:43;;;;;;;5.40;4.03;;;;;;;;;;5035511;28;20468;-72
2022/04/18 04:42:10;;;;;;;5.63;3.80;;;;;;;;;;5035699;28;20426;-71
2022/04/18 04:44:36;;;;;;;7.23;3.77;;;;;;;;;;5035618;28;20407;-69
2022/04/18 04:47:03;;;;;;;4.50;4.03;;;;;;;;;;5035424;28;20414;-72
2022/04/18 04:49:30;;;;;;;5.00;4.10;;;;;;;;;;5035383;28;20431;-71
2022/04/18 04:51:56;;;;;;;4.63;4.20;;;;;;;;;;5035492;28;20469;-72
2022/04/18 04:54:22;;;;;;;7.40;4.10;;;;;;;;;;5035473;28;20982;-71
2022/04/18 04:56:48;;;;;;;4.07;3.67;;;;;;;;;;5035216;28;20454;-71
2022/04/18 04:59:14;;;;;;;4.67;4.20;;;;;;;;;;5035305;28;20470;-70
2022/04/18 05:01:40;;;;;;;8.73;4.70;;;;;;;;;;5035293;28;20967;-71
2022/04/18 05:04:06;;;;;;;5.37;4.70;;;;;;;;;;5035122;28;20407;-71
2022/04/18 05:06:32;;;;;;;5.90;4.37;;;;;;;;;;5035013;28;20462;-72
2022/04/18 05:08:58;;;;;;;4.30;3.73;;;;;;;;;;5035043;28;20547;-70
2022/04/18 05:11:25;;;;;;;5.17;4.57;;;;;;;;;;5035142;28;20416;-70
2022/04/18 05:13:51;;;;;;;4.47;4.07;;;;;;;;;;5035009;28;20441;-71
2022/04/18 05:16:17;;;;;;;6.17;4.30;;;;;;;;;;5034831;28;20418;-73
2022/04/18 05:18:43;;;;;;;4.53;4.00;;;;;;;;;;5034760;28;20475;-72
2022/04/18 05:21:10;;;;;;;4.13;3.70;;;;;;;;;;5034903;28;20415;-72
2022/04/18 05:23:36;;;;;;;4.90;4.13;;;;;;;;;;5034871;28;20394;-68
2022/04/18 05:26:02;;;;;;;5.20;4.23;;;;;;;;;;5035083;28;21017;-70
2022/04/18 05:28:29;;;;;;;5.17;4.67;;;;;;;;;;5034767;28;20452;-70
2022/04/18 05:30:55;;;;;;;8.30;3.90;;;;;;;;;;5034728;28;20420;-70
2022/04/18 05:33:23;;;;;;;4.50;4.10;;;;;;;;;;5034549;28;20426;-72
2022/04/18 05:35:50;;;;;;;8.00;4.37;;;;;;;;;;5034499;28;20399;-69
2022/04/18 05:38:16;;;;;;;5.80;4.30;;;;;;;;;;5034401;28;20456;-73
2022/04/18 05:40:42;;;;;;;5.53;4.60;;;;;;;;;;5033888;28;20430;-70
2022/04/18 05:43:08;;;;;;;5.20;4.27;;;;;;;;;;5034265;28;20491;-71
2022/04/18 05:45:35;;;;;;;7.40;4.90;;;;;;;;;;5034454;28;20394;-71
2022/04/18 05:48:01;;;;;;;5.93;4.77;;;;;;;;;;5033007;28;20446;-72
2022/04/18 05:50:27;;;;;;;5.70;4.10;;;;;;;;;;5034339;28;20407;-73
2022/04/18 05:52:54;;;;;;;5.60;4.73;;;;;;;;;;5034261;28;20413;-73
2022/04/18 05:55:20;;;;;;;6.03;5.43;;;;;;;;;;5034122;28;20897;-73
2022/04/18 05:57:46;;;;;;;5.40;4.50;;;;;;;;;;5034106;28;20410;-70
2022/04/18 06:00:12;;;;;;;5.17;4.53;;;;;;;;;;5034120;28;20572;-72
2022/04/18 06:02:38;;;;;;;7.20;5.17;;;;;;;;;;5034174;28;20942;-73
2022/04/18 06:05:04;;;;;;;6.90;4.70;;;;;;;;;;5033749;28;20573;-72
2022/04/18 06:07:31;;;;;;;7.83;7.10;;;;;;;;;;5034077;28;20480;-73
2022/04/18 06:09:56;;;;;;;5.47;4.87;;;;;;;;;;5032896;28;20899;-73
2022/04/18 06:12:22;;;;;;;8.37;5.40;;;;;;;;;;5033941;28;20490;-72
2022/04/18 06:14:48;;;;;;;6.73;5.33;;;;;;;;;;5033858;28;20395;-73
2022/04/18 06:17:15;;;;;;;5.97;4.90;;;;;;;;;;5033651;28;20398;-71
2022/04/18 06:19:41;;;;;;;6.17;5.00;;;;;;;;;;5033849;28;20465;-73
2022/04/18 06:22:07;;;;;;;6.47;5.60;;;;;;;;;;5032535;28;20414;-73
2022/04/18 06:24:33;;;;;;;7.37;6.30;;;;;;;;;;5033733;28;20505;-71
2022/04/18 06:26:59;;;;;;;5.57;4.63;;;;;;;;;;5033771;28;20492;-72
2022/04/18 06:29:25;;;;;;;5.37;4.63;;;;;;;;;;5033651;28;20440;-71
2022/04/18 06:31:53;;;;;;;6.13;4.90;;;;;;;;;;5033572;28;20504;-73
2022/04/18 06:34:19;;;;;;;6.20;5.60;;;;;;;;;;5033583;28;20936;-73
2022/04/18 06:36:45;;;;;;;9.50;5.70;;;;;;;;;;5033448;28;20403;-72
2022/04/18 06:39:11;;;;;;;8.27;5.90;;;;;;;;;;5033571;28;20476;-73
2022/04/18 06:41:37;;;;;;;6.23;4.83;;;;;;;;;;5033397;28;20409;-73
2022/04/18 06:44:03;;;;;;;5.70;4.50;;;;;;;;;;5033381;28;20468;-73
2022/04/18 06:46:29;;;;;;;6.03;4.77;;;;;;;;;;5033386;28;20422;-72
2022/04/18 06:48:55;;;;;;;7.20;5.07;;;;;;;;;;5033271;28;20427;-72
2022/04/18 06:51:22;;;;;;;5.30;4.80;;;;;;;;;;5033335;28;20415;-72
2022/04/18 06:53:48;;;;;;;7.30;4.93;;;;;;;;;;5033026;28;20410;-74
2022/04/18 06:58:58;;;;;;;5.77;4.77;;;;;;;;;;5033236;28;20457;-73
2022/04/18 07:01:24;;;;;;;6.47;4.93;;;;;;;;;;5033330;28;20414;-71
2022/04/18 07:03:50;;;;;;;5.50;4.90;;;;;;;;;;5033245;28;20493;-72
2022/04/18 07:06:16;;;;;;;5.10;4.47;;;;;;;;;;5031703;28;21019;-73
2022/04/18 07:08:45;;;;;;;5.67;4.90;;;;;;;;;;5033161;28;20415;-73
2022/04/18 07:11:11;;;;;;;5.33;4.47;;;;;;;;;;5033107;28;20513;-73
2022/04/18 07:13:37;;;;;;;7.30;4.60;;;;;;;;;;5033112;28;20782;-72
2022/04/18 07:16:04;;;;;;;7.90;4.80;;;;;;;;;;5032995;28;20394;-72
2022/04/18 07:18:30;;;;;;;5.30;4.80;;;;;;;;;;5032925;28;20507;-73
2022/04/18 07:20:56;;;;;;;5.13;4.63;;;;;;;;;;5033138;28;20496;-71
2022/04/18 07:23:22;;;;;;;5.67;4.80;;;;;;;;;;5033032;28;20411;-72
2022/04/18 07:25:48;;;;;;;6.03;5.10;;;;;;;;;;5033023;28;20403;-72
2022/04/18 07:28:14;;;;;;;10.17;5.03;;;;;;;;;;5032986;28;20418;-73
2022/04/18 07:30:40;;;;;;;6.07;5.50;;;;;;;;;;5031734;28;20781;-72
2022/04/18 07:33:06;;;;;;;5.43;4.80;;;;;;;;;;5032942;28;20415;-69
2022/04/18 07:35:33;;;;;;;8.20;5.60;;;;;;;;;;5032958;28;20394;-66
2022/04/18 07:40:44;;;;;;;7.37;5.27;;;;;;;;;;5033200;28;20409;-72
2022/04/18 07:43:10;;;;;;;5.50;5.00;;;;;;;;;;5032855;28;20444;-70
2022/04/18 07:45:40;;;;;;;5.23;4.80;;;;;;;;;;5032779;28;20473;-71
2022/04/18 07:48:08;;;;;;;5.83;5.07;;;;;;;;;;5032736;28;20429;-68
2022/04/18 07:53:18;;;;;;;5.73;4.27;;;;;;;;;;5033242;28;20533;-72
2022/04/18 07:55:44;;;;;;;6.37;4.60;;;;;;;;;;5032787;28;20868;-70
2022/04/18 07:58:11;;;;;;;5.17;4.47;;;;;;;;;;5032642;28;20406;-73
2022/04/18 08:00:36;;;;;;;7.33;4.60;;;;;;;;;;5032686;28;20488;-72
2022/04/18 08:03:03;;;;;;;7.40;5.10;;;;;;;;;;5032764;28;20904;-71
2022/04/18 08:05:29;;;;;;;5.70;3.87;;;;;;;;;;5034822;28;20461;-71
2022/04/18 08:07:55;;;;;;;5.07;3.97;;;;;;;;;;5036277;28;20413;-72
2022/04/18 08:10:21;;;;;;;4.20;3.80;;;;;;;;;;5036163;28;20777;-71
2022/04/18 08:12:47;;;;;;;5.13;3.63;;;;;;;;;;5036299;28;20417;-71
2022/04/18 08:15:13;;;;;;;7.70;4.37;;;;;;;;;;5036096;28;20415;-66
2022/04/18 08:17:39;;;;;;;5.60;4.43;;;;;;;;;;5036027;28;20931;-69
2022/04/18 08:20:06;;;;;;;7.50;5.30;;;;;;;;;;5035912;28;20505;-71
2022/04/18 08:22:32;;;;;;;4.90;4.37;;;;;;;;;;5036047;28;20440;-73
2022/04/18 08:24:58;;;;;;;6.97;4.57;;;;;;;;;;5035923;28;20458;-68
2022/04/18 08:27:24;;;;;;;4.97;4.43;;;;;;;;;;5035819;28;20484;-68
2022/04/18 08:29:50;;;;;;;5.10;4.60;;;;;;;;;;5035920;28;20403;-67
2022/04/18 08:32:16;;;;;;;6.50;4.67;;;;;;;;;;5035880;28;20460;-70
2022/04/18 08:34:42;;;;;;;5.13;4.63;;;;;;;;;;5035726;28;20402;-73
2022/04/18 08:37:08;;;;;;;5.47;4.77;;;;;;;;;;5035569;28;20399;-67
2022/04/18 08:39:34;;;;;;;6.70;4.27;;;;;;;;;;5035676;28;20473;-70
2022/04/18 08:42:00;;;;;;;4.33;3.93;;;;;;;;;;5035633;28;20421;-66
2022/04/18 08:44:27;;;;;;;5.73;5.00;;;;;;;;;;5035616;28;20956;-69
2022/04/18 08:46:53;;;;;;;5.37;4.50;;;;;;;;;;5035535;28;20625;-71
2022/04/18 08:54:50;;;;;;;10.70;4.63;;;;;;;;;;5035430;28;20408;-71
2022/04/18 08:57:16;;;;;;;6.50;5.33;;;;;;;;;;5035270;28;20399;-70
2022/04/18 08:59:42;;;;;;;7.90;4.90;;;;;;;;;;5035201;28;20477;-72
2022/04/18 09:02:08;;;;;;;5.03;4.53;;;;;;;;;;5035153;28;20418;-68
2022/04/18 09:04:34;;;;;;;4.93;4.17;;;;;;;;;;5035004;28;20510;-67
2022/04/18 09:07:10;;;;;;;5.80;5.20;;;;;;;;;;5033972;28;20518;-69
2022/04/18 09:09:37;;;;;;;5.70;4.87;;;;;;;;;;5035229;28;20406;-70
2022/04/18 09:12:03;;;;;;;4.27;3.90;;;;;;;;;;5035074;28;20900;-69
2022/04/18 09:14:31;;;;;;;5.20;4.40;;;;;;;;;;5035047;28;20426;-71
2022/04/18 09:17:01;;;;;;;4.50;4.10;;;;;;;;;;5034552;28;20473;-70
2022/04/18 09:19:32;;;;;;;5.07;4.27;;;;;;;;;;5033519;28;20481;-71
2022/04/18 09:21:59;;;;;;;7.13;4.33;;;;;;;;;;5034927;28;20414;-68
2022/04/18 09:24:35;;;;;;;5.90;4.10;;;;;;;;;;5034893;28;20406;-72
2022/04/18 09:27:08;;;;;;;10.50;4.47;;;;;;;;;;5034632;28;20414;-74
2022/04/18 09:29:38;;;;;;;5.93;4.60;;;;;;;;;;5034852;28;20415;-73
2022/04/18 09:32:08;;;;;;;5.00;4.23;;;;;;;;;;5034705;28;20956;-74
2022/04/18 09:34:34;;;;;;;4.93;4.10;;;;;;;;;;5034670;28;20878;-73
2022/04/18 09:37:10;;;;;;;4.90;4.43;;;;;;;;;;5034454;28;20450;-72
2022/04/18 09:39:36;;;;;;;5.27;4.27;;;;;;;;;;5034384;28;20477;-70
2022/04/18 09:42:09;;;;;;;7.40;4.50;;;;;;;;;;5034471;28;20398;-68
2022/04/18 09:44:37;;;;;;;6.00;4.70;;;;;;;;;;5034452;28;20411;-71
2022/04/18 09:47:03;;;;;;;5.67;4.30;;;;;;;;;;5034200;28;20488;-71
2022/04/18 09:49:39;;;;;;;4.67;4.17;;;;;;;;;;5034376;28;20919;-74
2022/04/18 09:52:08;;;;;;;4.50;4.10;;;;;;;;;;5034455;28;20437;-74
2022/04/18 09:54:34;;;;;;;4.97;4.43;;;;;;;;;;5033066;28;20426;-70
2022/04/18 09:57:07;;;;;;;6.07;4.00;;;;;;;;;;5034124;28;20517;-69
2022/04/18 09:59:33;;;;;;;4.20;3.60;;;;;;;;;;5034118;28;20517;-73
2022/04/18 10:02:00;;;;;;;4.63;4.13;;;;;;;;;;5034082;28;20971;-73
2022/04/18 10:04:27;;;;;;;4.90;4.10;;;;;;;;;;5033852;28;20813;-73
2022/04/18 10:06:53;;;;;;;5.87;5.00;;;;;;;;;;5034125;28;20399;-72
2022/04/18 10:09:22;;;;;;;7.10;4.87;;;;;;;;;;5033983;28;20450;-70
2022/04/18 10:11:49;;;;;;;4.30;3.80;;;;;;;;;;5033992;28;20417;-72
2022/04/18 10:14:15;;;;;;;4.70;4.00;;;;;;;;;;5033923;28;21004;-70
2022/04/18 10:16:41;;;;;;;4.17;3.77;;;;;;;;;;5033649;28;20418;-72
2022/04/18 10:19:19;;;;;;;5.63;4.00;;;;;;;;;;5033680;28;20466;-73
2022/04/18 10:21:47;;;;;;;5.30;4.30;;;;;;;;;;5033776;28;20513;-70
2022/04/18 10:24:27;;;;;;;5.00;4.43;;;;;;;;;;5033864;28;20398;-73
2022/04/18 10:27:00;;;;;;;4.70;3.70;;;;;;;;;;5033491;28;20445;-72
2022/04/18 10:29:28;;;;;;;4.83;4.40;;;;;;;;;;5033561;28;20402;-70
2022/04/18 10:31:54;;;;;;;5.10;4.60;;;;;;;;;;5033693;28;20399;-68
2022/04/18 10:34:24;;;;;;;5.57;4.23;;;;;;;;;;5033430;28;20909;-71
2022/04/18 10:36:54;;;;;;;4.27;3.87;;;;;;;;;;5033462;28;20409;-72
2022/04/18 10:39:20;;;;;;;5.37;3.80;;;;;;;;;;5033459;28;20470;-73
2022/04/18 10:41:47;;;;;;;9.03;4.53;;;;;;;;;;5033443;28;20425;-74
2022/04/18 10:44:13;;;;;;;5.67;4.23;;;;;;;;;;5033419;28;20413;-73
2022/04/18 10:46:40;;;;;;;5.90;4.20;;;;;;;;;;5033389;28;20951;-72
2022/04/18 10:49:23;;;;;;;4.90;4.50;;;;;;;;;;5033260;28;20959;-71
2022/04/18 10:51:51;;;;;;;5.63;4.63;;;;;;;;;;5033319;28;20403;-71
2022/04/18 10:54:21;;;;;;;5.23;4.03;;;;;;;;;;5033351;28;20410;-71
2022/04/18 10:56:51;;;;;;;6.17;4.50;;;;;;;;;;5032970;28;20405;-71
2022/04/18 10:59:18;;;;;;;4.77;4.33;;;;;;;;;;5033212;28;21208;-69
2022/04/18 11:01:44;;;;;;;5.90;4.27;;;;;;;;;;5033269;28;20418;-72
2022/04/18 11:04:11;;;;;;;4.93;4.43;;;;;;;;;;5033259;28;20417;-69
2022/04/18 11:06:38;;;;;;;5.93;4.23;;;;;;;;;;5032929;28;20546;-72
2022/04/18 11:09:08;;;;;;;6.90;4.23;;;;;;;;;;5033080;28;20464;-73
2022/04/18 11:11:35;;;;;;;5.33;3.73;;;;;;;;;;5033213;28;20506;-70
2022/04/18 11:14:01;;;;;;;4.57;3.70;;;;;;;;;;5033075;28;20460;-72
2022/04/18 11:16:28;;;;;;;10.23;4.40;;;;;;;;;;5033140;28;20414;-70
2022/04/18 11:19:12;;;;;;;4.33;3.90;;;;;;;;;;5032832;28;20961;-71
2022/04/18 11:22:01;;;;;;;5.10;4.60;;;;;;;;;;5032998;28;20430;-70
2022/04/18 11:24:40;;;;;;;6.77;4.70;;;;;;;;;;5041015;28;20979;-71
2022/04/18 11:27:08;;;;;;;4.10;3.73;;;;;;;;;;5033001;28;20771;-68
2022/04/18 11:29:34;;;;;;;4.27;3.87;;;;;;;;;;5032947;28;20394;-70
2022/04/18 11:32:00;;;;;;;4.20;3.80;;;;;;;;;;5032994;28;20406;-70
2022/04/18 11:34:28;;;;;;;13.50;4.20;;;;;;;;;;5032903;28;20896;-69
2022/04/18 11:36:57;;;;;;;4.30;4.00;;;;;;;;;;5032788;28;20414;-71
2022/04/18 11:39:24;;;;;;;4.00;3.60;;;;;;;;;;5033530;28;20514;-71
2022/04/18 11:42:01;;;;;;;3.93;3.23;;;;;;;;;;5036838;28;20406;-73
2022/04/18 11:44:27;;;;;;;6.47;4.40;;;;;;;;;;5036904;28;20421;-70
2022/04/18 11:46:54;;;;;;;4.67;4.20;;;;;;;;;;5036448;28;20717;-70
2022/04/18 11:49:26;;;;;;;4.60;4.20;;;;;;;;;;5036634;28;20414;-69
2022/04/18 11:51:53;;;;;;;5.40;3.73;;;;;;;;;;5035340;28;20504;-68
2022/04/18 11:54:19;;;;;;;5.43;4.20;;;;;;;;;;5036577;28;20426;-72
2022/04/18 11:56:56;;;;;;;5.17;3.80;;;;;;;;;;5036257;28;20456;-71
2022/04/18 11:59:22;;;;;;;3.20;2.90;;;;;;;;;;5036397;28;20466;-72
2022/04/18 12:07:21;;;;;;;4.03;3.37;;;;;;;;;;5036564;28;20413;-73
2022/04/18 12:09:47;;;;;;;6.67;4.27;;;;;;;;;;5036296;28;20438;-73
2022/04/18 12:12:29;;;;;;;3.87;3.40;;;;;;;;;;5036239;28;20460;-73
2022/04/18 12:15:00;;;;;;;4.60;3.37;;;;;;;;;;5036340;28;20402;-73
2022/04/18 12:17:26;;;;;;;4.60;3.50;;;;;;;;;;5036028;28;20412;-73
2022/04/18 12:19:52;;;;;;;4.03;3.40;;;;;;;;;;5036015;28;20518;-73
2022/04/18 12:22:22;;;;;;;3.73;3.40;;;;;;;;;;5035996;28;20413;-73
2022/04/18 12:24:48;;;;;;;4.90;4.23;;;;;;;;;;5035970;28;20418;-73
2022/04/18 12:27:16;;;;;;;5.40;3.60;;;;;;;;;;5035946;28;21035;-72
2022/04/18 12:29:43;;;;;;;5.40;3.77;;;;;;;;;;5036079;28;20890;-72
2022/04/18 12:32:24;;;;;;;3.60;3.30;;;;;;;;;;5035884;28;20403;-72
2022/04/18 12:34:50;;;;;;;3.40;3.10;;;;;;;;;;5035847;28;20406;-72
2022/04/18 12:37:16;;;;;;;5.43;3.43;;;;;;;;;;5035719;28;20413;-71
2022/04/18 12:39:42;;;;;;;6.77;4.37;;;;;;;;;;5035716;28;20469;-72
2022/04/18 12:42:09;;;;;;;5.10;3.50;;;;;;;;;;5035677;28;20939;-71
2022/04/18 12:44:35;;;;;;;4.57;4.17;;;;;;;;;;5035401;28;20421;-69
2022/04/18 12:47:20;;;;;;;4.30;3.90;;;;;;;;;;5035414;28;20418;-71
2022/04/18 12:50:05;;;;;;;5.53;3.20;;;;;;;;;;5035566;28;20823;-72
2022/04/18 12:52:31;;;;;;;5.30;3.07;;;;;;;;;;5035538;28;20399;-71
2022/04/18 12:55:06;;;;;;;4.37;3.77;;;;;;;;;;5035395;28;20420;-74
2022/04/18 12:57:32;;;;;;;3.90;3.60;;;;;;;;;;5035414;28;20398;-71
2022/04/18 13:00:14;;;;;;;3.57;3.27;;;;;;;;;;5035311;28;20477;-73
2022/04/18 13:02:40;;;;;;;4.80;3.73;;;;;;;;;;5035220;28;20879;-72
2022/04/18 13:05:06;;;;;;;3.43;3.13;;;;;;;;;;5034822;28;21019;-73
2022/04/18 13:07:37;;;;;;;4.00;3.60;;;;;;;;;;5035124;28;20406;-73
2022/04/18 13:10:04;;;;;;;3.47;3.17;;;;;;;;;;5035115;28;20903;-71
2022/04/18 13:12:30;;;;;;;3.97;3.10;;;;;;;;;;5035201;28;20486;-72
2022/04/18 13:15:03;;;;;;;3.70;2.90;;;;;;;;;;5034995;28;20415;-73
2022/04/18 13:17:32;;;;;;;3.83;3.53;;;;;;;;;;5034885;28;20426;-72
2022/04/18 13:19:59;;;;;;;3.70;3.40;;;;;;;;;;5034846;28;20864;-73
2022/04/18 13:22:25;;;;;;;6.00;3.37;;;;;;;;;;5034845;28;20406;-72
2022/04/18 13:24:51;;;;;;;3.23;2.93;;;;;;;;;;5034713;28;20425;-72
2022/04/18 13:27:27;;;;;;;4.77;3.03;;;;;;;;;;5034844;28;20401;-73
2022/04/18 13:29:53;;;;;;;3.10;2.77;;;;;;;;;;5034817;28;20442;-75
2022/04/18 13:32:19;;;;;;;3.50;3.10;;;;;;;;;;5034751;28;20936;-71
2022/04/18 13:34:45;;;;;;;3.00;2.53;;;;;;;;;;5034694;28;20422;-72
2022/04/18 13:37:13;;;;;;;3.37;2.67;;;;;;;;;;5034580;28;20812;-71
2022/04/18 13:39:39;;;;;;;3.37;3.07;;;;;;;;;;5034511;28;20481;-72
2022/04/18 13:42:05;;;;;;;2.87;2.60;;;;;;;;;;5034597;28;20472;-72
2022/04/18 13:44:31;;;;;;;5.43;3.07;;;;;;;;;;5034510;28;20417;-68
2022/04/18 13:46:57;;;;;;;3.40;3.20;;;;;;;;;;5034344;28;20402;-72
2022/04/18 13:49:23;;;;;;;3.00;2.80;;;;;;;;;;5033196;28;20406;-72
2022/04/18 13:51:49;;;;;;;3.80;2.60;;;;;;;;;;5034417;28;20415;-67
2022/04/18 13:54:15;;;;;;;2.60;2.40;;;;;;;;;;5034422;28;20426;-73
2022/04/18 13:56:41;;;;;;;3.67;3.33;;;;;;;;;;5034174;28;20417;-68
2022/04/18 13:59:07;;;;;;;4.63;2.93;;;;;;;;;;5034141;28;20473;-71
2022/04/18 14:01:33;;;;;;;2.40;2.20;;;;;;;;;;5033975;28;20882;-72
2022/04/18 14:03:59;;;;;;;3.77;3.47;;;;;;;;;;5033661;28;20429;-72
2022/04/18 14:06:27;;;;;;;2.83;2.63;;;;;;;;;;5033848;28;20557;-72
2022/04/18 14:08:53;;;;;;;6.00;2.90;;;;;;;;;;5034080;28;20401;-69
2022/04/18 14:11:19;;;;;;;2.80;2.50;;;;;;;;;;5034021;28;20420;-71
2022/04/18 14:13:45;;;;;;;3.50;3.20;;;;;;;;;;5033967;28;20398;-73
2022/04/18 14:21:43;;;;;;;2.87;2.63;;;;;;;;;;5034157;28;20445;-73
2022/04/18 14:24:09;;;;;;;4.40;3.30;;;;;;;;;;5033780;28;20881;-72
2022/04/18 14:26:35;;;;;;;3.20;2.90;;;;;;;;;;5033743;28;20422;-71
2022/04/18 14:29:01;;;;;;;3.43;3.13;;;;;;;;;;5033783;28;20798;-72
2022/04/18 14:31:29;;;;;;;2.97;2.77;;;;;;;;;;5033785;28;20403;-72
2022/04/18 14:33:55;;;;;;;3.40;2.57;;;;;;;;;;5033719;28;20418;-71
2022/04/18 14:36:21;;;;;;;2.60;2.40;;;;;;;;;;5033499;28;20410;-70
2022/04/18 14:38:47;;;;;;;3.60;2.80;;;;;;;;;;5033545;28;20480;-72
2022/04/18 14:41:13;;;;;;;3.43;3.13;;;;;;;;;;5033514;28;20403;-74
2022/04/18 14:43:39;;;;;;;3.10;2.90;;;;;;;;;;5033428;28;20911;-71
2022/04/18 14:46:05;;;;;;;3.57;2.80;;;;;;;;;;5033460;28;20407;-73
2022/04/18 14:48:31;;;;;;;2.87;2.67;;;;;;;;;;5033354;28;20430;-74
2022/04/18 14:50:57;;;;;;;3.20;2.90;;;;;;;;;;5033461;28;20402;-72
2022/04/18 14:53:23;;;;;;;3.00;2.70;;;;;;;;;;5033449;28;20394;-72
2022/04/18 14:55:49;;;;;;;2.97;2.40;;;;;;;;;;5033413;28;20406;-74
2022/04/18 14:58:16;;;;;;;2.53;2.33;;;;;;;;;;5033152;28;20407;-72
2022/04/18 15:00:43;;;;;;;3.30;3.00;;;;;;;;;;5033213;28;20421;-72
2022/04/18 15:03:09;;;;;;;3.27;2.83;;;;;;;;;;5033319;28;20433;-72
2022/04/18 15:05:35;;;;;;;2.47;2.30;;;;;;;;;;5033028;28;20496;-71
2022/04/18 15:08:01;;;;;;;3.27;3.00;;;;;;;;;;5033264;28;20394;-70
2022/04/18 15:10:28;;;;;;;3.00;2.70;;;;;;;;;;5033161;28;20740;-70
2022/04/18 15:12:54;;;;;;;2.70;2.43;;;;;;;;;;5033108;28;20417;-72
2022/04/18 15:15:22;;;;;;;3.20;2.90;;;;;;;;;;5037071;28;20514;-72
2022/04/18 15:17:49;;;;;;;3.10;2.80;;;;;;;;;;5037129;28;20422;-67